Time;durP1;ratioP1;P1;durP2;ratioP2;P2;SDS_P1;SDS_P2;PMS_P1;PMS_P2;Temp;Humidity;BMP_temperature;BMP_pressure;BME280_temperature;BME280_humidity;BME280_pressure;Samples;Min_cycle;Max_cycle;Signal;HPM_P1;HPM_P2
2021/09/23 00:01:03;;;;;;;43.50;20.33;;;;;;;12.29;93.20;102319.59;4972375;28;20096;-67
2021/09/23 00:03:55;;;;;;;41.40;20.90;;;;;;;12.33;92.86;102322.22;4973123;28;20047;-67
2021/09/23 00:06:24;;;;;;;43.50;21.60;;;;;;;12.51;91.85;102323.72;4972877;28;20047;-67
2021/09/23 00:08:53;;;;;;;40.92;19.17;;;;;;;12.46;91.93;102316.66;4975862;28;20053;-67
2021/09/23 00:11:21;;;;;;;37.70;19.27;;;;;;;12.51;91.30;102321.06;4970778;28;20133;-68
2021/09/23 00:13:49;;;;;;;38.03;19.90;;;;;;;12.55;91.38;102323.66;4972392;28;20064;-67
2021/09/23 00:16:20;;;;;;;37.90;18.85;;;;;;;12.60;90.92;102321.78;4971263;28;20066;-68
2021/09/23 00:18:51;;;;;;;45.17;20.73;;;;;;;12.66;90.27;102311.84;4972428;28;20372;-68
2021/09/23 00:21:19;;;;;;;44.60;19.83;;;;;;;12.54;90.56;102306.72;4972125;28;20068;-67
2021/09/23 00:23:49;;;;;;;39.38;19.85;;;;;;;12.58;90.57;102302.19;4972912;28;20612;-68
2021/09/23 00:26:18;;;;;;;45.97;21.92;;;;;;;12.67;90.22;102304.72;4973388;28;20514;-68
2021/09/23 00:28:46;;;;;;;45.38;21.15;;;;;;;12.60;90.33;102303.94;4968982;28;20050;-67
2021/09/23 00:31:14;;;;;;;44.63;22.83;;;;;;;12.52;90.20;102300.50;4972515;28;20513;-67
2021/09/23 00:33:43;;;;;;;47.92;23.20;;;;;;;12.57;90.54;102308.47;4969826;28;20054;-69
2021/09/23 00:36:11;;;;;;;47.47;22.90;;;;;;;12.57;90.27;102305.78;4971752;28;20137;-69
2021/09/23 00:38:39;;;;;;;46.42;21.92;;;;;;;12.53;90.98;102299.56;4968261;28;20050;-69
2021/09/23 00:41:07;;;;;;;46.20;23.17;;;;;;;12.59;90.76;102299.47;4969223;28;20510;-69
2021/09/23 00:43:36;;;;;;;45.80;22.40;;;;;;;12.56;90.94;102293.31;4969959;28;20054;-69
2021/09/23 00:46:04;;;;;;;48.95;22.23;;;;;;;12.53;91.11;102294.22;4969604;28;20080;-69
2021/09/23 00:48:32;;;;;;;42.30;24.05;;;;;;;12.52;91.26;102297.84;4975579;28;20272;-69
2021/09/23 00:51:00;;;;;;;47.95;23.17;;;;;;;12.51;91.75;102305.00;4970166;28;20059;-69
2021/09/23 00:53:28;;;;;;;50.70;24.25;;;;;;;12.49;91.74;102305.91;4972997;28;20054;-69
2021/09/23 00:55:57;;;;;;;44.78;22.38;;;;;;;12.41;91.70;102311.41;4972065;28;20058;-69
2021/09/23 00:58:25;;;;;;;47.05;22.83;;;;;;;12.38;92.54;102303.41;4973116;28;20093;-69
2021/09/23 01:00:54;;;;;;;48.42;23.90;;;;;;;12.30;92.19;102298.16;4972021;28;20092;-69
2021/09/23 01:03:22;;;;;;;53.13;23.73;;;;;;;12.35;92.44;102291.88;4969165;28;20066;-69
2021/09/23 01:05:50;;;;;;;49.00;24.92;;;;;;;12.27;92.85;102287.50;4974642;28;20395;-69
2021/09/23 01:08:18;;;;;;;51.40;24.80;;;;;;;12.26;93.30;102282.19;4970999;28;20144;-69
2021/09/23 01:10:46;;;;;;;45.42;22.02;;;;;;;12.20;93.21;102275.16;4970657;28;20467;-69
2021/09/23 01:13:15;;;;;;;48.25;25.48;;;;;;;12.19;93.81;102275.16;4971246;28;20113;-70
2021/09/23 01:15:45;;;;;;;50.13;23.13;;;;;;;12.12;93.58;102277.06;4973101;28;20599;-69
2021/09/23 01:18:16;;;;;;;51.97;23.70;;;;;;;12.07;93.67;102279.81;4972514;28;20157;-70
2021/09/23 01:20:45;;;;;;;40.90;21.23;;;;;;;12.03;93.63;102279.88;4972573;28;20766;-69
2021/09/23 01:23:14;;;;;;;48.08;23.20;;;;;;;12.03;94.31;102271.84;4972366;28;20058;-69
2021/09/23 01:25:43;;;;;;;53.83;25.25;;;;;;;12.05;94.39;102273.59;4970593;28;20112;-69
2021/09/23 01:28:11;;;;;;;52.00;26.20;;;;;;;12.10;94.47;102274.41;4972200;28;20082;-70
2021/09/23 01:30:39;;;;;;;49.65;24.67;;;;;;;12.14;94.58;102260.09;4972502;28;20419;-69
2021/09/23 01:33:07;;;;;;;47.95;24.10;;;;;;;12.12;94.83;102261.91;4970147;28;20124;-69
2021/09/23 01:35:35;;;;;;;56.25;27.35;;;;;;;12.13;95.47;102262.78;4971884;28;20046;-69
2021/09/23 01:38:02;;;;;;;46.92;25.52;;;;;;;12.12;95.39;102258.31;4970609;28;20093;-70
2021/09/23 01:40:32;;;;;;;42.80;22.40;;;;;;;12.05;95.36;102254.84;4970573;28;20128;-69
2021/09/23 01:42:59;;;;;;;41.38;21.95;;;;;;;12.01;95.52;102249.59;4970806;28;20070;-69
2021/09/23 01:45:27;;;;;;;52.92;24.85;;;;;;;12.00;95.93;102253.19;4970903;28;20498;-69
2021/09/23 01:47:55;;;;;;;50.25;24.95;;;;;;;12.00;96.47;102262.06;4973760;28;20074;-70
2021/09/23 01:50:23;;;;;;;46.90;24.38;;;;;;;11.95;96.38;102255.91;4969119;28;20065;-69
2021/09/23 01:52:51;;;;;;;49.13;24.38;;;;;;;11.98;97.10;102247.84;4970553;28;20054;-69
2021/09/23 01:55:19;;;;;;;47.60;23.73;;;;;;;12.08;98.37;102232.53;4972230;28;20046;-69
2021/09/23 01:57:48;;;;;;;44.53;23.27;;;;;;;12.12;98.09;102239.59;4972116;28;20415;-70
2021/09/23 02:00:17;;;;;;;41.95;23.45;;;;;;;12.14;98.33;102235.13;4971092;28;20082;-73
2021/09/23 02:02:45;;;;;;;47.55;23.77;;;;;;;12.20;99.27;102226.97;4969999;28;20499;-69
2021/09/23 02:05:13;;;;;;;52.28;25.70;;;;;;;12.26;99.65;102216.19;4971888;28;20054;-69
2021/09/23 02:07:41;;;;;;;44.40;23.60;;;;;;;12.32;100.00;102212.50;4968574;28;20325;-69
2021/09/23 02:10:10;;;;;;;46.13;24.98;;;;;;;12.31;100.00;102211.63;4970315;28;20526;-70
2021/09/23 02:12:38;;;;;;;44.35;24.52;;;;;;;12.36;100.00;102206.22;4971309;28;20557;-69
2021/09/23 02:15:09;;;;;;;46.78;25.98;;;;;;;12.37;100.00;102207.09;4969500;28;20051;-69
2021/09/23 02:17:37;;;;;;;43.55;22.92;;;;;;;12.42;100.00;102187.34;4968792;28;20100;-69
2021/09/23 02:20:06;;;;;;;45.28;24.55;;;;;;;12.47;100.00;102180.09;4970210;28;20722;-70
2021/09/23 02:22:34;;;;;;;48.42;25.33;;;;;;;12.45;100.00;102173.03;4969554;28;20058;-70
2021/09/23 02:25:02;;;;;;;45.22;24.98;;;;;;;12.49;100.00;102166.69;4966682;28;20157;-70
2021/09/23 02:27:29;;;;;;;46.83;23.52;;;;;;;12.62;100.00;102167.34;4970590;28;20062;-70
2021/09/23 02:29:57;;;;;;;56.00;26.52;;;;;;;12.63;100.00;102161.06;4968929;28;20510;-68
2021/09/23 02:32:27;;;;;;;54.55;27.23;;;;;;;12.67;100.00;102154.75;4971734;28;20054;-68
2021/09/23 02:34:56;;;;;;;57.35;27.00;;;;;;;12.74;100.00;102153.72;4971494;28;20070;-68
2021/09/23 02:37:24;;;;;;;55.53;29.25;;;;;;;12.73;100.00;102140.34;4973631;28;20470;-68
2021/09/23 02:39:52;;;;;;;53.85;30.50;;;;;;;12.77;100.00;102134.91;4974583;28;20157;-68
2021/09/23 02:42:20;;;;;;;62.80;30.50;;;;;;;12.79;100.00;102141.09;4970922;28;20055;-68
2021/09/23 02:44:48;;;;;;;68.32;32.45;;;;;;;12.83;100.00;102137.44;4973630;28;20054;-70
2021/09/23 02:47:16;;;;;;;60.35;32.38;;;;;;;12.85;100.00;102132.06;4974031;28;20418;-68
2021/09/23 02:49:45;;;;;;;56.65;29.17;;;;;;;12.79;100.00;102132.22;4973697;28;20077;-68
2021/09/23 02:52:13;;;;;;;62.88;32.80;;;;;;;12.85;100.00;102126.69;4975585;28;20126;-68
2021/09/23 02:54:42;;;;;;;67.18;32.53;;;;;;;12.88;100.00;102119.47;4971741;28;20057;-68
2021/09/23 02:57:35;;;;;;;67.63;32.42;;;;;;;12.93;100.00;102107.78;4974884;28;20113;-68
2021/09/23 03:00:04;;;;;;;66.18;32.65;;;;;;;12.92;100.00;102114.06;4971727;28;20062;-70
2021/09/23 03:02:31;;;;;;;66.38;33.50;;;;;;;12.89;100.00;102126.59;4976114;28;20054;-68
2021/09/23 03:05:01;;;;;;;63.92;32.30;;;;;;;13.02;100.00;102121.84;4973190;28;20062;-68
2021/09/23 03:07:29;;;;;;;69.95;33.90;;;;;;;13.02;100.00;102120.97;4974194;28;20054;-70
2021/09/23 03:09:56;;;;;;;70.38;33.50;;;;;;;13.00;100.00;102128.19;4978149;28;20465;-68
2021/09/23 03:12:24;;;;;;;64.70;31.35;;;;;;;13.03;100.00;102122.75;4972897;28;20062;-68
2021/09/23 03:14:52;;;;;;;73.40;35.78;;;;;;;13.03;100.00;102122.75;4974175;28;20081;-68
2021/09/23 03:17:20;;;;;;;68.90;33.10;;;;;;;12.99;100.00;102127.31;4971311;28;20058;-68
2021/09/23 03:19:47;;;;;;;69.32;36.22;;;;;;;12.93;100.00;102124.75;4974505;28;20574;-68
2021/09/23 03:22:17;;;;;;;72.90;34.50;;;;;;;12.94;100.00;102121.16;4974507;28;20100;-69
2021/09/23 03:24:47;;;;;;;77.25;35.30;;;;;;;12.92;100.00;102114.06;4970717;28;20353;-68
2021/09/23 03:27:15;;;;;;;77.18;37.03;;;;;;;12.90;100.00;102111.41;4974483;28;20074;-70
2021/09/23 03:29:45;;;;;;;75.35;34.70;;;;;;;12.86;100.00;102110.59;4971400;28;20074;-69
2021/09/23 03:32:13;;;;;;;69.28;33.45;;;;;;;12.97;100.00;102113.03;4972061;28;20845;-69
2021/09/23 03:34:40;;;;;;;76.78;38.03;;;;;;;12.96;100.00;102100.56;4975075;28;20136;-68
2021/09/23 03:37:08;;;;;;;74.93;35.30;;;;;;;12.92;100.00;102103.34;4971877;28;20125;-69
2021/09/23 03:39:38;;;;;;;75.57;35.65;;;;;;;12.89;100.00;102101.63;4974942;28;20505;-68
2021/09/23 03:42:06;;;;;;;77.88;36.47;;;;;;;12.97;100.00;102099.63;4970868;28;20046;-68
2021/09/23 03:44:34;;;;;;;75.35;37.20;;;;;;;12.94;100.00;102104.19;4974258;28;20057;-69
2021/09/23 03:47:01;;;;;;;73.05;35.95;;;;;;;12.98;100.00;102089.81;4972268;28;20054;-69
2021/09/23 03:49:29;;;;;;;87.88;39.85;;;;;;;13.06;100.00;102085.19;4973129;28;20050;-68
2021/09/23 03:51:57;;;;;;;78.90;37.05;;;;;;;12.99;100.00;102103.19;4973910;28;20050;-68
2021/09/23 03:54:25;;;;;;;86.03;40.45;;;;;;;13.07;100.00;102101.19;4972013;28;20054;-69
2021/09/23 03:56:54;;;;;;;90.28;40.90;;;;;;;13.08;100.00;102100.28;4973544;28;20094;-69
2021/09/23 03:59:22;;;;;;;87.57;42.13;;;;;;;13.03;100.00;102106.69;4974559;28;20050;-68
2021/09/23 04:01:50;;;;;;;90.90;41.17;;;;;;;13.10;100.00;102115.47;4970539;28;20050;-69
2021/09/23 04:04:19;;;;;;;94.95;43.65;;;;;;;13.09;100.00;102114.56;4972435;28;20057;-68
2021/09/23 04:06:46;;;;;;;94.05;42.20;;;;;;;13.17;100.00;102111.72;4968982;28;20050;-68
2021/09/23 04:09:14;;;;;;;91.13;43.35;;;;;;;13.28;100.00;102107.00;4971363;28;20049;-68
2021/09/23 04:11:42;;;;;;;99.90;43.90;;;;;;;13.30;100.00;102106.94;4971308;28;20054;-68
2021/09/23 04:14:11;;;;;;;103.70;44.40;;;;;;;13.29;100.00;102095.34;4973103;28;20157;-69
2021/09/23 04:16:39;;;;;;;96.47;44.45;;;;;;;13.34;100.00;102100.66;4972330;28;20050;-68
2021/09/23 04:19:07;;;;;;;98.65;42.63;;;;;;;13.32;100.00;102102.50;4970443;28;20419;-66
2021/09/23 04:21:35;;;;;;;90.15;43.58;;;;;;;13.34;100.00;102093.47;4973056;28;20531;-67
2021/09/23 04:24:03;;;;;;;101.00;44.45;;;;;;;13.34;100.00;102095.28;4971616;28;20136;-69
2021/09/23 04:26:32;;;;;;;112.28;45.25;;;;;;;13.39;100.00;102091.56;4973894;28;20046;-68
2021/09/23 04:28:59;;;;;;;101.78;46.08;;;;;;;13.40;100.00;102079.03;4970932;28;20141;-68
2021/09/23 04:31:29;;;;;;;102.57;44.28;;;;;;;13.41;100.00;102059.38;4970845;28;20065;-69
2021/09/23 04:33:57;;;;;;;97.32;42.47;;;;;;;13.42;100.00;102061.13;4974270;28;20214;-69
2021/09/23 04:36:27;;;;;;;90.85;41.28;;;;;;;13.42;100.00;102058.47;4971762;28;21700;-69
2021/09/23 04:38:55;;;;;;;103.13;45.65;;;;;;;13.44;100.00;102044.06;4972415;28;20046;-70
2021/09/23 04:41:23;;;;;;;99.55;42.42;;;;;;;13.39;100.00;102043.31;4969491;28;20363;-69
2021/09/23 04:43:50;;;;;;;90.25;39.85;;;;;;;13.47;100.00;102032.41;4975421;28;20428;-69
2021/09/23 04:46:21;;;;;;;100.68;40.97;;;;;;;13.48;100.00;102030.59;4970228;28;20140;-67
2021/09/23 04:48:52;;;;;;;96.70;44.05;;;;;;;13.42;100.00;102016.44;4975432;28;20077;-67
2021/09/23 04:51:19;;;;;;;95.72;43.47;;;;;;;13.44;100.00;102001.19;4971860;28;20314;-67
2021/09/23 04:53:51;;;;;;;91.13;41.58;;;;;;;13.45;100.00;102002.09;4972858;28;20065;-67
2021/09/23 04:56:19;;;;;;;94.07;41.00;;;;;;;13.41;100.00;102000.38;4974923;28;20080;-67
2021/09/23 04:58:46;;;;;;;94.93;40.00;;;;;;;13.44;100.00;101997.63;4971206;28;20046;-67
2021/09/23 05:01:16;;;;;;;86.20;37.75;;;;;;;13.49;100.00;102001.06;4972571;28;20410;-67
2021/09/23 05:03:45;;;;;;;82.85;37.58;;;;;;;13.56;100.00;101999.97;4970364;28;20053;-67
2021/09/23 05:06:14;;;;;;;94.43;39.53;;;;;;;13.51;100.00;101995.69;4970920;28;20064;-67
2021/09/23 05:08:42;;;;;;;88.45;39.95;;;;;;;13.54;100.00;101996.47;4970373;28;20125;-67
2021/09/23 05:11:10;;;;;;;86.18;39.72;;;;;;;13.52;100.00;101994.72;4968926;28;20141;-68
2021/09/23 05:14:01;;;;;;;94.72;39.80;;;;;;;13.58;100.00;101994.59;4972571;28;20061;-67
2021/09/23 05:16:29;;;;;;;87.63;38.60;;;;;;;13.54;100.00;101979.50;4971588;28;20050;-67
2021/09/23 05:18:58;;;;;;;82.60;36.10;;;;;;;13.53;100.00;101986.66;4970813;28;20106;-67
2021/09/23 05:21:27;;;;;;;84.00;36.22;;;;;;;13.56;100.00;101989.25;4970039;28;20101;-67
2021/09/23 05:23:55;;;;;;;78.75;39.20;;;;;;;13.51;100.00;101977.78;4970168;28;20052;-67
2021/09/23 05:26:23;;;;;;;83.40;37.20;;;;;;;13.55;100.00;101970.53;4972628;28;20054;-67
2021/09/23 05:28:51;;;;;;;86.93;38.28;;;;;;;13.64;100.00;101972.97;4970980;28;20136;-67
2021/09/23 05:31:19;;;;;;;86.20;37.47;;;;;;;13.73;100.00;101980.75;4974062;28;20528;-67
2021/09/23 05:33:47;;;;;;;80.40;36.50;;;;;;;13.74;100.00;101977.19;4970187;28;20055;-68
2021/09/23 05:36:15;;;;;;;74.00;35.60;;;;;;;13.75;100.00;101975.34;4972241;28;20060;-67
2021/09/23 05:38:44;;;;;;;75.40;35.05;;;;;;;13.77;100.00;101976.19;4971299;28;20260;-68
2021/09/23 05:41:12;;;;;;;70.70;33.80;;;;;;;13.83;100.00;101968.84;4967529;28;20050;-69
2021/09/23 05:43:40;;;;;;;73.63;34.42;;;;;;;13.81;100.00;101965.34;4971226;28;20506;-68
2021/09/23 05:46:08;;;;;;;73.03;33.58;;;;;;;13.79;100.00;101969.88;4971123;28;20078;-68
2021/09/23 05:48:39;;;;;;;70.18;32.85;;;;;;;13.81;100.00;101970.72;4970904;28;20062;-68
2021/09/23 05:51:07;;;;;;;67.95;33.42;;;;;;;13.79;100.00;101969.88;4968952;28;20043;-68
2021/09/23 05:53:34;;;;;;;71.35;35.40;;;;;;;13.83;100.00;101970.66;4970651;28;20167;-68
2021/09/23 05:56:04;;;;;;;66.40;32.83;;;;;;;13.86;100.00;101964.31;4973489;28;20449;-68
2021/09/23 05:58:36;;;;;;;64.72;31.10;;;;;;;13.83;100.00;101974.22;4969194;28;20448;-68
2021/09/23 06:01:04;;;;;;;63.60;32.47;;;;;;;13.88;100.00;101974.09;4971992;28;20084;-68
2021/09/23 06:03:46;;;;;;;73.32;31.80;;;;;;;13.89;100.00;101977.66;4970616;28;20050;-68
2021/09/23 06:06:15;;;;;;;65.55;32.70;;;;;;;13.95;100.00;101972.13;4971462;28;20064;-68
2021/09/23 06:08:43;;;;;;;70.30;34.25;;;;;;;13.92;100.00;101981.13;4973242;28;20057;-68
2021/09/23 06:11:12;;;;;;;64.18;32.17;;;;;;;13.95;100.00;101980.19;4971189;28;20056;-67
2021/09/23 06:13:41;;;;;;;63.33;31.92;;;;;;;13.98;100.00;101980.97;4973659;28;20060;-69
2021/09/23 06:16:09;;;;;;;67.82;33.40;;;;;;;13.98;100.00;101978.28;4974721;28;20133;-69
2021/09/23 06:18:37;;;;;;;68.97;33.83;;;;;;;14.00;100.00;101981.81;4975197;28;20161;-67
2021/09/23 06:21:06;;;;;;;68.50;33.58;;;;;;;14.08;100.00;101984.28;4973143;28;20054;-67
2021/09/23 06:23:35;;;;;;;68.03;33.13;;;;;;;14.15;100.00;101987.66;4977314;28;20421;-67
2021/09/23 06:26:03;;;;;;;68.70;33.17;;;;;;;14.24;100.00;101994.56;4975071;28;20456;-68
2021/09/23 06:28:36;;;;;;;65.53;31.70;;;;;;;14.26;100.00;101985.53;4972999;28;20100;-68
2021/09/23 06:31:04;;;;;;;68.25;32.20;;;;;;;14.29;100.00;101977.41;4975624;28;20202;-67
2021/09/23 06:33:32;;;;;;;59.30;30.10;;;;;;;14.29;100.00;101976.53;4973312;28;20121;-67
2021/09/23 06:36:00;;;;;;;57.42;27.17;;;;;;;14.34;100.00;101980.81;4976468;28;20065;-68
2021/09/23 06:38:32;;;;;;;55.28;26.30;;;;;;;14.45;100.00;101976.94;4976589;28;20058;-67
2021/09/23 06:41:00;;;;;;;46.38;24.77;;;;;;;14.51;100.00;101972.25;4973745;28;20141;-68
2021/09/23 06:43:28;;;;;;;42.47;23.65;;;;;;;14.56;100.00;101959.56;4978343;28;20640;-69
2021/09/23 06:45:57;;;;;;;58.08;21.95;;;;;;;14.65;100.00;101955.75;4972811;28;20056;-66
2021/09/23 06:48:25;;;;;;;36.63;19.08;;;;;;;14.73;100.00;101968.94;4978161;28;20124;-66
2021/09/23 06:50:53;;;;;;;38.40;18.80;;;;;;;14.86;100.00;101964.91;4974171;28;20050;-68
2021/09/23 06:53:20;;;;;;;36.38;18.35;;;;;;;14.90;100.00;101954.97;4974504;28;20678;-68
2021/09/23 06:55:48;;;;;;;35.60;17.33;;;;;;;14.93;100.00;101949.47;4976711;28;20353;-68
2021/09/23 06:58:16;;;;;;;33.20;18.02;;;;;;;15.02;100.00;101948.31;4974610;28;20073;-68
2021/09/23 07:00:44;;;;;;;33.58;17.23;;;;;;;15.15;100.00;101941.59;4974380;28;20050;-68
2021/09/23 07:03:13;;;;;;;35.38;18.92;;;;;;;15.17;100.00;101947.81;4973567;28;20446;-68
2021/09/23 07:05:43;;;;;;;33.65;18.40;;;;;;;15.21;100.00;101941.38;4972532;28;20051;-67
2021/09/23 07:08:14;;;;;;;41.13;19.10;;;;;;;15.25;100.00;101934.97;4976422;28;20494;-67
2021/09/23 07:10:41;;;;;;;40.35;20.10;;;;;;;15.30;100.00;101943.75;4974414;28;20566;-66
2021/09/23 07:13:09;;;;;;;34.85;17.80;;;;;;;15.33;100.00;101929.34;4977558;28;20050;-69
2021/09/23 07:15:37;;;;;;;35.33;18.48;;;;;;;15.36;100.00;101939.09;4975889;28;20596;-69
2021/09/23 07:18:06;;;;;;;36.55;18.98;;;;;;;15.43;100.00;101943.34;4971767;28;20050;-69
2021/09/23 07:20:35;;;;;;;34.97;18.55;;;;;;;15.51;99.81;101930.53;4975245;28;20054;-69
2021/09/23 07:23:03;;;;;;;34.72;17.60;;;;;;;15.71;98.94;101931.59;4973433;28;20209;-69
2021/09/23 07:25:33;;;;;;;38.00;18.98;;;;;;;15.81;97.63;101927.66;4973675;28;20545;-68
2021/09/23 07:28:02;;;;;;;33.35;18.02;;;;;;;16.03;97.50;101931.31;4974851;28;20050;-68
2021/09/23 07:30:30;;;;;;;35.95;18.23;;;;;;;16.21;96.52;101926.19;4975446;28;20050;-69
2021/09/23 07:32:58;;;;;;;30.90;14.57;;;;;;;16.32;95.27;101921.25;4972499;28;20475;-69
2021/09/23 07:35:25;;;;;;;28.02;13.63;;;;;;;16.19;95.02;101920.84;4972838;28;20050;-67
2021/09/23 07:37:55;;;;;;;18.75;10.32;;;;;;;16.11;94.67;101905.94;4971517;28;20054;-71
2021/09/23 07:40:23;;;;;;;28.20;11.68;;;;;;;16.31;93.95;101899.75;4972681;28;20054;-69
2021/09/23 07:42:52;;;;;;;30.48;11.20;;;;;;;16.53;93.48;101892.59;4971696;28;20120;-70
2021/09/23 07:45:20;;;;;;;21.60;10.63;;;;;;;16.75;92.80;101892.59;4974660;28;20042;-69
2021/09/23 07:47:48;;;;;;;19.40;9.60;;;;;;;16.69;90.96;101882.06;4969216;28;20050;-69
2021/09/23 07:50:15;;;;;;;17.20;8.45;;;;;;;16.86;90.17;101869.75;4974241;28;20054;-69
2021/09/23 07:53:09;;;;;;;13.57;7.13;;;;;;;17.10;88.84;101874.06;4972490;28;20095;-69
2021/09/23 07:55:37;;;;;;;13.43;6.55;;;;;;;17.36;86.57;101877.44;4971106;28;20129;-73
2021/09/23 07:58:05;;;;;;;12.50;5.78;;;;;;;17.41;85.77;101883.50;4973231;28;20133;-71
2021/09/23 08:00:33;;;;;;;11.32;5.50;;;;;;;17.37;85.16;101876.50;4971180;28;20129;-74
2021/09/23 08:03:01;;;;;;;13.52;6.07;;;;;;;17.49;83.20;101889.44;4978243;28;20117;-74
2021/09/23 08:05:29;;;;;;;10.75;5.53;;;;;;;17.70;82.06;101890.28;4974707;28;20074;-68
2021/09/23 08:07:58;;;;;;;12.20;5.35;;;;;;;17.41;82.80;101888.03;4977822;28;20099;-71
2021/09/23 08:10:27;;;;;;;13.90;6.47;;;;;;;17.26;81.87;101890.44;4975773;28;20065;-73
2021/09/23 08:12:56;;;;;;;13.05;5.88;;;;;;;17.00;82.77;101902.38;4974381;28;20046;-74
2021/09/23 08:15:24;;;;;;;14.73;6.20;;;;;;;17.25;81.80;101904.03;4975789;28;20074;-69
2021/09/23 08:17:51;;;;;;;15.82;6.03;;;;;;;16.97;82.62;101913.28;4973401;28;20054;-73
2021/09/23 08:20:19;;;;;;;16.13;5.65;;;;;;;16.95;81.40;101901.69;4974151;28;20054;-73
2021/09/23 08:22:47;;;;;;;12.55;5.65;;;;;;;17.01;81.97;101923.00;4975342;28;20688;-69
2021/09/23 08:25:15;;;;;;;15.73;5.30;;;;;;;17.03;81.49;101929.22;4974523;28;20050;-69
2021/09/23 08:27:45;;;;;;;11.07;5.43;;;;;;;17.20;81.45;101933.00;4973940;28;20068;-69
2021/09/23 08:30:14;;;;;;;12.98;6.07;;;;;;;17.02;82.23;101930.13;4976909;28;20505;-73
2021/09/23 08:32:43;;;;;;;11.68;5.75;;;;;;;16.85;82.66;101933.53;4968817;28;20038;-78
2021/09/23 08:35:12;;;;;;;9.40;4.47;;;;;;;16.95;82.30;101923.25;4972728;28;20046;-73
2021/09/23 08:37:40;;;;;;;11.15;5.13;;;;;;;16.97;81.88;101930.34;4974477;28;20100;-74
2021/09/23 08:40:11;;;;;;;11.13;5.20;;;;;;;16.94;81.79;101924.19;4972291;28;20387;-74
2021/09/23 08:42:40;;;;;;;10.95;5.30;;;;;;;16.97;81.53;101926.75;4973763;28;20093;-73
2021/09/23 08:45:13;;;;;;;12.60;4.95;;;;;;;17.03;81.58;101939.13;4973066;28;20106;-73
2021/09/23 08:47:42;;;;;;;11.13;5.70;;;;;;;16.87;81.50;101949.66;4974696;28;20065;-73
2021/09/23 08:50:12;;;;;;;9.63;4.80;;;;;;;16.77;82.13;101952.69;4972592;28;20498;-74
2021/09/23 08:52:41;;;;;;;10.43;5.00;;;;;;;16.80;82.35;101957.06;4973670;28;20074;-74
2021/09/23 08:55:20;;;;;;;11.65;4.70;;;;;;;16.84;81.85;101964.13;4970577;28;20073;-74
2021/09/23 08:58:12;;;;;;;11.80;4.80;;;;;;;16.87;81.48;101946.94;4973112;28;21249;-69
2021/09/23 09:01:02;;;;;;;13.07;4.82;;;;;;;17.13;81.08;101948.59;4976130;28;21484;-74
2021/09/23 09:03:33;;;;;;;9.65;4.75;;;;;;;17.16;80.92;101940.34;4973820;28;20415;-73
2021/09/23 09:06:05;;;;;;;9.20;4.72;;;;;;;17.40;78.98;101941.13;4972471;28;20065;-68
2021/09/23 09:08:34;;;;;;;8.38;4.22;;;;;;;17.32;78.75;101927.97;4971271;28;20407;-68
2021/09/23 09:11:04;;;;;;;11.43;4.88;;;;;;;17.68;77.97;101921.88;4971597;28;20050;-68
2021/09/23 09:13:38;;;;;;;9.65;4.60;;;;;;;18.35;74.90;101921.56;4971437;28;20153;-68
2021/09/23 09:16:10;;;;;;;9.43;4.40;;;;;;;18.62;73.68;101922.94;4974658;28;20054;-68
2021/09/23 09:18:39;;;;;;;12.07;4.13;;;;;;;18.76;72.25;101915.97;4973135;28;20050;-68
2021/09/23 09:21:09;;;;;;;9.60;4.60;;;;;;;18.46;72.17;101911.13;4971084;28;20050;-68
2021/09/23 09:23:42;;;;;;;10.30;4.57;;;;;;;18.31;72.27;101907.34;4974557;28;20046;-68
2021/09/23 09:26:10;;;;;;;12.90;4.40;;;;;;;18.95;71.02;101905.16;4970731;28;20439;-69
2021/09/23 09:28:48;;;;;;;10.05;4.20;;;;;;;18.72;70.59;101903.56;4972414;28;20067;-69
2021/09/23 09:31:17;;;;;;;8.20;3.40;;;;;;;18.77;70.64;101918.59;4973448;28;20066;-69
2021/09/23 09:33:48;;;;;;;9.85;4.18;;;;;;;18.41;71.28;101910.47;4972279;28;20145;-69
2021/09/23 09:36:35;;;;;;;9.38;3.70;;;;;;;18.09;73.03;101913.75;4970341;28;20050;-69
2021/09/23 09:39:05;;;;;;;7.47;3.90;;;;;;;18.17;73.76;101921.50;4970601;28;20082;-73
2021/09/23 09:41:36;;;;;;;12.10;4.05;;;;;;;17.74;75.40;101918.03;4975716;28;20061;-68
2021/09/23 09:44:09;;;;;;;8.80;4.20;;;;;;;18.03;74.99;101921.25;4975032;28;20059;-69
2021/09/23 09:46:41;;;;;;;8.15;4.30;;;;;;;17.94;74.25;101930.66;4976851;28;20145;-68
2021/09/23 09:49:11;;;;;;;12.00;4.03;;;;;;;17.76;73.94;101929.66;4976607;28;20047;-69
2021/09/23 09:51:41;;;;;;;9.75;4.28;;;;;;;17.90;73.86;101926.34;4975034;28;20050;-69
2021/09/23 09:54:11;;;;;;;11.38;3.90;;;;;;;17.84;73.81;101930.19;4974180;28;20046;-69
2021/09/23 09:56:40;;;;;;;7.05;3.92;;;;;;;17.64;74.78;101922.09;4976426;28;20054;-68
2021/09/23 09:59:12;;;;;;;7.70;3.83;;;;;;;17.67;74.37;101928.25;4976647;28;20121;-68
2021/09/23 10:01:44;;;;;;;9.57;3.80;;;;;;;17.47;74.85;101929.13;4974923;28;20065;-68
2021/09/23 10:04:13;;;;;;;9.85;3.88;;;;;;;17.40;75.02;101926.75;4977632;28;20046;-68
2021/09/23 10:06:43;;;;;;;10.43;4.53;;;;;;;17.46;75.21;101924.66;4973904;28;20145;-68
2021/09/23 10:09:14;;;;;;;10.65;5.35;;;;;;;17.49;75.32;101932.63;4976037;28;20572;-69
2021/09/23 10:11:43;;;;;;;11.13;4.78;;;;;;;17.49;75.36;101932.63;4973998;28;20501;-68
2021/09/23 10:14:13;;;;;;;10.60;4.57;;;;;;;17.55;74.66;101932.38;4973413;28;20047;-69
2021/09/23 10:16:43;;;;;;;11.07;4.50;;;;;;;17.41;74.23;101925.81;4976667;28;20453;-69
2021/09/23 10:19:12;;;;;;;14.73;4.93;;;;;;;17.96;72.81;101930.59;4976127;28;20050;-69
2021/09/23 10:21:40;;;;;;;12.95;5.20;;;;;;;18.03;72.37;101926.66;4973677;28;20365;-67
2021/09/23 10:24:10;;;;;;;7.50;4.10;;;;;;;18.66;70.99;101938.06;4975443;28;20050;-69
2021/09/23 10:26:42;;;;;;;13.13;4.15;;;;;;;19.05;68.92;101933.47;4974973;28;20058;-69
2021/09/23 10:29:12;;;;;;;9.38;3.78;;;;;;;19.07;68.04;101933.41;4973368;28;21138;-75
2021/09/23 10:31:40;;;;;;;10.55;3.53;;;;;;;19.53;65.69;101929.22;4975011;28;20539;-74
2021/09/23 10:34:10;;;;;;;10.73;3.40;;;;;;;19.47;66.24;101924.13;4977297;28;20058;-74
2021/09/23 10:36:41;;;;;;;10.52;3.47;;;;;;;19.62;65.88;101924.28;4975661;28;20046;-72
2021/09/23 10:39:10;;;;;;;7.38;3.10;;;;;;;19.44;66.43;101913.44;4971035;28;20220;-72
2021/09/23 10:41:41;;;;;;;11.10;3.60;;;;;;;19.54;66.06;101912.00;4976593;28;20590;-75
2021/09/23 10:44:10;;;;;;;9.52;3.50;;;;;;;19.77;64.93;101905.41;4970608;28;20624;-73
2021/09/23 10:46:38;;;;;;;13.43;3.92;;;;;;;19.90;65.62;101907.44;4972893;28;20050;-73
2021/09/23 10:49:07;;;;;;;6.43;2.97;;;;;;;19.87;66.05;101907.59;4974820;28;20154;-73
2021/09/23 10:51:36;;;;;;;9.73;3.38;;;;;;;20.40;64.50;101903.75;4971653;28;20046;-72
2021/09/23 10:54:05;;;;;;;7.60;3.08;;;;;;;20.17;64.55;101898.75;4971067;28;20042;-73
2021/09/23 10:56:34;;;;;;;9.93;3.58;;;;;;;20.50;63.17;101902.28;4972551;28;20082;-68
2021/09/23 10:59:04;;;;;;;9.38;3.20;;;;;;;20.54;62.34;101889.41;4969963;28;20058;-69
2021/09/23 11:01:36;;;;;;;6.53;2.83;;;;;;;20.02;62.95;101895.91;4975918;28;20066;-68
2021/09/23 11:04:25;;;;;;;7.30;2.90;;;;;;;20.40;61.42;101889.31;4967509;28;20137;-68
2021/09/23 11:06:56;;;;;;;7.20;2.90;;;;;;;20.60;62.31;101875.50;4972824;28;20089;-68
2021/09/23 11:09:26;;;;;;;6.32;2.60;;;;;;;20.51;61.92;101862.47;4972264;28;20057;-69
2021/09/23 11:12:06;;;;;;;6.43;3.25;;;;;;;20.36;62.90;101861.50;4972412;28;20422;-68
2021/09/23 11:14:36;;;;;;;7.47;2.83;;;;;;;20.33;63.38;101861.72;4973579;28;20046;-68
2021/09/23 11:17:07;;;;;;;8.05;2.90;;;;;;;20.12;63.81;101861.94;4971649;28;20305;-68
2021/09/23 11:19:38;;;;;;;7.03;2.53;;;;;;;20.34;63.65;101845.34;4970345;28;20455;-68